Fort Yukon, AK

8:02 PM AKDT on July 24, 2014 (GMT -0800)
Arctic Village (PARC) Elev 2090 ft | 68.11 °N, 145.58 °W | Change Station

Current weather conditions updated 6 minutes ago

Scattered Clouds
Scattered Clouds
54 °F
Feels Like 54 °F
N
0
Wind Variable Wind from North

Tomorrow is forecast to be nearly the same temperature as today. Periods of light rain.

Today
High -- | Low -- °F
--% Chance of Precip.
Yesterday
High -- | Low -- °F
Precip. -- in
3:50 AM 11:45 PM
Waning Crescent, 3% visible
Pressure 29.67 in
Visibility 10.0 miles
Clouds Scattered Clouds 6000 ft
Dew Point 37 °F
Humidity 54%
Rainfall 0.05 in
Snow Depth 3 in
UV 1 out of 12
Pollen Not available.
Air Quality Not available.
Flu Activity Not available.
METAR PARC 250356Z AUTO 00000KT 10SM SCT060 12/03 A2967 RMK AO1

More Conditions Fewer Conditions

Pressure 29.67 in
Visibility 10.0 miles
Clouds Scattered Clouds 6000 ft
Dew Point 37 °F
Humidity 54%
Rainfall 0.05 in
Snow Depth 3 in
UV 1 out of 12
Pollen Not available.
Air Quality Not available.
Flu Activity Not available.
METAR PARC 250356Z AUTO 00000KT 10SM SCT060 12/03 A2967 RMK AO1

More Conditions Fewer Conditions

10-Day Weather Forecast

Almanac

Astronomy

Jul. 24, 2014 Rise Set
Actual Time 3:50 AM AKDT 11:45 PM AKDT
Civil Twilight Sun does not rise 1:17 AM AKDT
Nautical Twilight Sun does not rise Sun does not rise
Astronomical Twilight Sun does not rise Sun does not rise
Moon 2:29 AM AKDT (7/24) 9:36 PM AKDT (7/24)
Length of Visible Light 24h 00m
Length of Day
19h 55m
Tomorrow will be 8m 43s shorter.
Waning Crescent, 3% of the Moon is Illuminated
Jul 25
Waning Crescent
Jul 26
New
Aug 3
First Quarter
Aug 10
Full
Aug 17
Last Quarter

Today's Extremes

State Highs State Lows

Community

WunderPhotos

Upload Photos

1,737,241 photos uploaded!

Nearby

Snow Depth

Station Depth Elevation
Fort Yukon 3 in 430 ft
Eagle Summit 0 in 3650 ft
Monument Creek 0 in 1850 ft
Little Chena Ridge 1 in 2000 ft
Upper Chena 1 in 2850 ft

Earthquake Activity

City Distance Mag. Time & Date
No recent earthquake activity has been reported nearby.
Minimum magnitude displayed is 2.5.

Coastal Water Temperatures

Place Temperature
No Stations Reporting

Nearby Weather Stations

Station Location Temp. Dew Point Humidity Wind Precip. Elev Updated Type
RAWS FT. YUKON AK, Chalkyitsik, AK 62 °F 47 °F 59% South  at  4 mph 0.00 in / hr 464 ft 6:52 PM AKDT MADIS
RAWS BEAVER (WBQ) AK, Fort Yukon, AK 58 °F 49 °F 71% SW  at  3 mph 0.00 in / hr 482 ft 7:20 PM AKDT MADIS

Show More Stations Show Fewer Stations